Time;durP1;ratioP1;P1;durP2;ratioP2;P2;SDS_P1;SDS_P2;PMS_P1;PMS_P2;Temp;Humidity;BMP_temperature;BMP_pressure;BME280_temperature;BME280_humidity;BME280_pressure;Samples;Min_cycle;Max_cycle;Signal;HPM_P1;HPM_P2
2023/01/14 00:01:28;;;;;;;24.30;5.00;;;8.10;99.90;;;;;;4886249;29;20492;-86
2023/01/14 00:03:54;;;;;;;23.25;5.43;;;8.10;99.90;;;;;;4882026;29;20274;-85
2023/01/14 00:06:22;;;;;;;16.70;4.68;;;8.10;99.90;;;;;;4870667;29;20307;-85
2023/01/14 00:08:59;;;;;;;19.83;4.90;;;8.10;99.90;;;;;;4868881;29;20195;-86
2023/01/14 00:14:11;;;;;;;18.55;4.38;;;8.10;99.90;;;;;;4885940;29;20198;-85
2023/01/14 00:16:37;;;;;;;18.30;4.05;;;8.10;99.90;;;;;;4886848;29;20180;-85
2023/01/14 00:19:03;;;;;;;27.67;5.00;;;8.00;99.90;;;;;;4885372;29;20272;-85
2023/01/14 00:21:29;;;;;;;27.75;5.18;;;8.00;99.90;;;;;;4889814;29;20217;-84
2023/01/14 00:23:55;;;;;;;12.20;4.17;;;8.00;99.90;;;;;;4889907;29;20759;-86
2023/01/14 00:26:21;;;;;;;20.23;4.50;;;8.00;99.90;;;;;;4888610;29;20211;-86
2023/01/14 00:28:48;;;;;;;25.85;3.65;;;7.90;99.90;;;;;;4891250;29;20250;-85
2023/01/14 00:31:16;;;;;;;25.00;4.88;;;7.90;99.90;;;;;;4890167;29;20545;-85
2023/01/14 00:33:43;;;;;;;25.25;5.65;;;7.90;99.90;;;;;;4889182;29;20195;-86
2023/01/14 00:36:11;;;;;;;21.73;5.30;;;7.90;99.90;;;;;;4871282;29;20191;-85
2023/01/14 00:38:37;;;;;;;24.73;5.57;;;7.90;99.90;;;;;;4889626;29;20454;-85
2023/01/14 00:41:11;;;;;;;26.25;4.28;;;7.90;99.90;;;;;;4887795;29;20245;-86
2023/01/14 00:43:41;;;;;;;33.67;4.55;;;7.90;1.00;;;;;;4890210;29;20256;-85
2023/01/14 00:46:11;;;;;;;25.70;4.45;;;7.90;1.00;;;;;;4890914;29;20184;-85
2023/01/14 00:48:37;;;;;;;15.98;4.38;;;7.80;1.00;;;;;;4890934;29;20189;-84
2023/01/14 00:51:03;;;;;;;26.85;4.32;;;7.80;1.00;;;;;;4869460;29;20310;-85
2023/01/14 00:53:30;;;;;;;24.10;5.70;;;7.80;1.00;;;;;;4871623;29;20669;-85
2023/01/14 00:55:56;;;;;;;22.75;5.72;;;7.80;1.00;;;;;;4889577;29;20199;-86
2023/01/14 00:58:22;;;;;;;19.73;4.57;;;7.90;1.00;;;;;;4889501;29;20267;-85
2023/01/14 01:00:47;;;;;;;28.33;5.50;;;7.90;1.00;;;;;;4872704;29;20242;-85
2023/01/14 01:03:14;;;;;;;23.47;5.07;;;8.00;1.00;;;;;;4890440;29;20455;-85
2023/01/14 01:05:41;;;;;;;20.15;4.13;;;8.00;1.00;;;;;;4889384;29;21028;-86
2023/01/14 01:08:09;;;;;;;24.55;5.43;;;8.00;1.00;;;;;;4886810;29;20255;-86
2023/01/14 01:10:35;;;;;;;22.37;5.03;;;8.00;99.90;;;;;;4886033;29;20235;-86
2023/01/14 01:13:01;;;;;;;20.60;5.20;;;8.00;99.90;;;;;;4887508;29;20432;-85
2023/01/14 01:15:27;;;;;;;20.33;4.50;;;8.00;99.90;;;;;;4889247;29;20515;-85
2023/01/14 01:17:52;;;;;;;19.87;4.37;;;8.00;99.90;;;;;;4889824;29;20192;-86
2023/01/14 01:20:18;;;;;;;23.20;5.30;;;8.00;99.90;;;;;;4890002;29;20211;-86
2023/01/14 01:22:43;;;;;;;15.73;3.33;;;8.00;99.90;;;;;;4889873;29;20252;-85
2023/01/14 01:25:09;;;;;;;23.13;4.77;;;8.00;99.90;;;;;;4887405;29;20191;-85
2023/01/14 01:27:34;;;;;;;29.83;4.67;;;8.00;99.90;;;;;;4888462;29;20212;-86
2023/01/14 01:30:00;;;;;;;19.27;6.50;;;8.00;99.90;;;;;;4890211;29;21381;-86
2023/01/14 01:32:26;;;;;;;24.50;5.80;;;8.00;99.90;;;;;;4886905;29;20174;-86
2023/01/14 01:34:51;;;;;;;26.03;4.60;;;8.00;99.90;;;;;;4903439;29;20210;-84
2023/01/14 01:37:17;;;;;;;23.33;4.10;;;8.00;99.90;;;;;;4887651;29;20196;-85
2023/01/14 01:39:42;;;;;;;32.50;4.50;;;8.00;99.90;;;;;;4885064;29;20295;-85
2023/01/14 01:42:15;;;;;;;29.07;5.67;;;8.00;99.90;;;;;;4881818;29;22012;-85
2023/01/14 01:44:40;;;;;;;26.17;4.40;;;8.00;1.00;;;;;;4885573;29;20565;-85
2023/01/14 01:47:08;;;;;;;25.37;4.33;;;8.00;99.90;;;;;;4884290;29;20184;-85
2023/01/14 01:49:36;;;;;;;16.25;5.88;;;8.00;99.90;;;;;;4885794;29;20215;-85
2023/01/14 01:52:24;;;;;;;22.67;5.03;;;8.00;99.90;;;;;;4885153;29;20404;-85
2023/01/14 01:55:00;;;;;;;28.63;4.07;;;7.90;99.90;;;;;;4884757;29;20188;-85
2023/01/14 01:57:26;;;;;;;31.58;4.93;;;7.90;99.90;;;;;;4868886;29;20304;-85
2023/01/14 01:59:56;;;;;;;22.55;5.18;;;7.80;99.90;;;;;;4889040;29;20222;-85
2023/01/14 02:02:25;;;;;;;27.67;4.78;;;7.80;99.90;;;;;;4885312;29;20203;-85
2023/01/14 02:04:50;;;;;;;26.33;4.18;;;7.80;1.00;;;;;;4884037;29;20204;-85
2023/01/14 02:07:20;;;;;;;17.47;4.50;;;7.70;1.00;;;;;;4884700;29;20187;-85
2023/01/14 02:09:49;;;;;;;21.42;4.70;;;7.80;1.00;;;;;;4884330;29;20570;-86
2023/01/14 02:12:17;;;;;;;15.50;4.75;;;7.80;1.00;;;;;;4883410;29;20214;-86
2023/01/14 02:15:03;;;;;;;21.38;4.18;;;7.80;1.00;;;;;;4884010;29;20222;-85
2023/01/14 02:18:01;;;;;;;13.65;4.13;;;7.80;1.00;;;;;;4882027;29;20267;-86
2023/01/14 02:21:03;;;;;;;16.08;3.85;;;7.80;1.00;;;;;;4867425;29;20223;-86
2023/01/14 02:23:49;;;;;;;25.15;5.20;;;7.90;1.00;;;;;;4862780;29;20183;-85
2023/01/14 02:26:52;;;;;;;25.70;4.50;;;7.90;1.00;;;;;;4882848;29;20626;-85
2023/01/14 02:29:45;;;;;;;19.17;4.18;;;7.90;1.00;;;;;;4881362;29;20775;-85
2023/01/14 02:32:32;;;;;;;11.77;3.92;;;7.90;1.00;;;;;;4857794;29;20183;-85
2023/01/14 02:35:12;;;;;;;25.48;4.93;;;7.90;1.00;;;;;;4881766;29;20199;-85
2023/01/14 02:38:19;;;;;;;18.23;3.45;;;7.90;1.00;;;;;;4865923;29;20176;-86
2023/01/14 02:41:00;;;;;;;35.72;5.00;;;7.90;1.00;;;;;;4882211;29;20219;-85
2023/01/14 02:46:51;;;;;;;20.75;3.55;;;7.90;1.00;;;;;;4878865;29;20618;-86
2023/01/14 02:49:28;;;;;;;17.90;3.33;;;7.90;99.90;;;;;;4882216;29;20215;-85
2023/01/14 02:51:57;;;;;;;20.77;4.65;;;7.80;99.90;;;;;;4880009;29;20195;-86
2023/01/14 02:54:23;;;;;;;22.83;5.00;;;7.80;99.90;;;;;;4879583;29;20664;-85
2023/01/14 03:00:05;;;;;;;24.20;4.57;;;7.70;99.90;;;;;;4881441;29;20254;-85
2023/01/14 03:03:04;;;;;;;25.80;4.00;;;7.60;99.90;;;;;;4877590;29;20184;-85
2023/01/14 03:05:53;;;;;;;13.57;3.75;;;7.60;1.00;;;;;;4882993;29;20190;-85
2023/01/14 03:08:37;;;;;;;13.90;4.00;;;7.60;1.00;;;;;;4881475;29;20177;-85
2023/01/14 03:11:07;;;;;;;18.10;3.40;;;7.50;1.00;;;;;;4879221;29;20595;-86
2023/01/14 03:13:43;;;;;;;22.90;4.80;;;7.50;1.00;;;;;;4864536;29;20196;-86
2023/01/14 03:16:18;;;;;;;30.77;4.78;;;7.50;1.00;;;;;;4881289;29;20820;-85
2023/01/14 03:19:04;;;;;;;14.65;3.78;;;7.50;1.00;;;;;;4882549;29;20589;-85
2023/01/14 03:21:40;;;;;;;16.52;4.10;;;7.40;1.00;;;;;;4885913;29;20219;-86
2023/01/14 03:24:43;;;;;;;14.10;3.50;;;7.40;1.00;;;;;;4887686;29;20235;-86
2023/01/14 03:27:18;;;;;;;20.80;3.75;;;7.40;1.00;;;;;;4883102;29;20298;-86
2023/01/14 03:29:50;;;;;;;15.35;4.15;;;7.40;1.00;;;;;;4867344;29;20207;-86
2023/01/14 03:32:39;;;;;;;16.10;3.78;;;7.40;1.00;;;;;;4885680;29;20175;-86
2023/01/14 03:35:07;;;;;;;27.10;3.95;;;7.40;1.00;;;;;;4885239;29;20186;-85
2023/01/14 03:37:33;;;;;;;20.05;3.38;;;7.40;1.00;;;;;;4869526;29;20201;-86
2023/01/14 03:40:04;;;;;;;19.30;3.92;;;7.40;1.00;;;;;;4886246;29;20243;-86
2023/01/14 03:42:37;;;;;;;24.38;3.97;;;7.40;1.00;;;;;;4886514;29;20203;-85
2023/01/14 03:45:18;;;;;;;20.38;4.53;;;7.40;1.00;;;;;;4867182;29;20192;-86
2023/01/14 03:47:45;;;;;;;14.40;3.75;;;7.40;1.00;;;;;;4885684;29;20220;-86
2023/01/14 03:50:19;;;;;;;17.88;4.38;;;7.50;1.00;;;;;;4870543;29;20218;-86
2023/01/14 03:53:08;;;;;;;21.73;4.22;;;7.40;1.00;;;;;;4868739;29;20183;-87
2023/01/14 03:56:06;;;;;;;14.75;3.67;;;7.50;1.00;;;;;;4882972;29;20216;-85
2023/01/14 03:58:43;;;;;;;20.05;4.00;;;7.50;1.00;;;;;;4864785;29;20214;-85
2023/01/14 04:01:17;;;;;;;14.73;3.33;;;7.50;1.00;;;;;;4868619;29;20557;-86
2023/01/14 04:04:02;;;;;;;12.10;3.55;;;7.50;1.00;;;;;;4866023;29;20445;-85
2023/01/14 04:06:30;;;;;;;17.33;2.90;;;7.50;1.00;;;;;;4865124;29;20683;-85
2023/01/14 04:09:07;;;;;;;21.92;4.68;;;7.50;1.00;;;;;;4885929;29;20229;-87
2023/01/14 04:11:33;;;;;;;20.63;3.30;;;7.60;1.00;;;;;;4881336;29;20195;-86
2023/01/14 04:17:39;;;;;;;12.00;3.15;;;7.60;1.00;;;;;;4887269;29;20269;-85
2023/01/14 04:20:23;;;;;;;;;;;;;;;;;;;;;
2023/01/14 04:22:49;;;;;;;15.52;5.85;;;7.70;1.00;;;;;;4881509;29;20267;-86
2023/01/14 04:25:35;;;;;;;11.20;3.20;;;7.60;1.00;;;;;;4870322;29;20216;-85
2023/01/14 04:28:15;;;;;;;22.10;3.10;;;7.70;1.00;;;;;;4867688;29;20192;-86
2023/01/14 04:30:53;;;;;;;;;;;;;;;;;;;;;
2023/01/14 04:33:20;;;;;;;16.23;4.23;;;7.70;1.00;;;;;;4881146;29;20250;-86
2023/01/14 04:36:01;;;;;;;14.25;3.50;;;7.70;1.00;;;;;;4887209;29;20826;-85
2023/01/14 04:38:52;;;;;;;17.13;3.97;;;7.70;1.00;;;;;;4871211;29;20271;-86
2023/01/14 04:44:07;;;;;;;12.02;3.47;;;7.70;1.00;;;;;;4887334;29;20494;-85
2023/01/14 04:46:42;;;;;;;12.48;3.50;;;7.70;1.00;;;;;;4868521;29;20655;-86
2023/01/14 04:49:19;;;;;;;20.05;3.88;;;7.70;1.00;;;;;;4867584;29;20279;-85
2023/01/14 04:52:26;;;;;;;;;;;;;;;;;;;;;
2023/01/14 04:55:02;;;;;;;20.55;5.07;;;7.70;1.00;;;;;;4886639;29;20275;-86
2023/01/14 04:57:55;;;;;;;16.63;3.22;;;7.60;1.00;;;;;;4867591;29;20195;-85
2023/01/14 05:00:21;;;;;;;15.57;3.65;;;7.60;1.00;;;;;;4884542;29;20227;-86
2023/01/14 05:03:08;;;;;;;11.33;3.10;;;7.50;1.00;;;;;;4885494;29;20215;-86
2023/01/14 05:05:42;;;;;;;24.23;4.32;;;7.50;1.00;;;;;;4882270;29;20198;-87
2023/01/14 05:08:24;;;;;;;14.25;5.28;;;7.50;1.00;;;;;;4900090;29;20216;-87
2023/01/14 05:10:50;;;;;;;15.75;3.90;;;7.50;1.00;;;;;;4874855;29;20748;-85
2023/01/14 05:13:34;;;;;;;13.40;3.97;;;7.40;1.00;;;;;;4882436;29;20327;-85
2023/01/14 05:16:17;;;;;;;21.55;3.45;;;7.40;1.00;;;;;;4866674;29;20207;-85
2023/01/14 05:24:31;;;;;;;16.90;4.30;;;7.40;1.00;;;;;;4895620;29;20199;-85
2023/01/14 05:27:10;;;;;;;;;;;;;;;;;;;;;
2023/01/14 05:29:38;;;;;;;20.70;3.42;;;7.40;1.00;;;;;;4898571;29;20215;-85
2023/01/14 05:32:22;;;;;;;15.85;3.45;;;7.40;1.00;;;;;;4882708;29;20178;-85
2023/01/14 05:34:47;;;;;;;12.75;2.85;;;7.40;1.00;;;;;;4881795;29;20577;-85
2023/01/14 05:37:13;;;;;;;23.53;3.07;;;7.40;1.00;;;;;;4883342;29;20189;-85
2023/01/14 05:40:07;;;;;;;21.13;4.97;;;7.40;1.00;;;;;;4902094;29;20686;-86
2023/01/14 05:45:38;;;;;;;13.65;3.25;;;7.40;1.00;;;;;;4899301;29;20701;-84
2023/01/14 05:48:21;;;;;;;17.65;3.17;;;7.40;1.00;;;;;;4883289;29;20187;-85
2023/01/14 05:51:10;;;;;;;18.30;3.30;;;7.40;1.00;;;;;;4882833;29;20230;-87
2023/01/14 05:53:36;;;;;;;14.35;4.72;;;7.50;1.00;;;;;;4878255;29;20194;-85
2023/01/14 05:56:01;;;;;;;16.10;3.37;;;7.50;1.00;;;;;;4883496;29;20230;-85
2023/01/14 05:58:27;;;;;;;11.50;3.13;;;7.50;1.00;;;;;;4905028;29;20195;-86
2023/01/14 06:07:03;;;;;;;20.38;3.75;;;7.60;1.00;;;;;;4904980;29;20202;-86
2023/01/14 06:09:28;;;;;;;16.00;3.25;;;7.70;1.00;;;;;;4901270;29;20258;-86
2023/01/14 06:12:05;;;;;;;10.93;2.90;;;7.70;1.00;;;;;;4885898;29;20254;-86
2023/01/14 06:14:45;;;;;;;13.25;3.28;;;7.80;99.90;;;;;;4889234;29;20198;-86
2023/01/14 06:17:46;;;;;;;14.30;5.10;;;7.80;99.90;;;;;;4887922;29;20205;-86
2023/01/14 06:20:12;;;;;;;16.23;6.20;;;7.80;99.90;;;;;;4902613;29;20220;-85
2023/01/14 06:23:13;;;;;;;17.45;4.63;;;7.80;99.90;;;;;;4890067;29;20205;-86
2023/01/14 06:25:43;;;;;;;10.77;3.42;;;7.90;1.00;;;;;;4893270;29;20198;-86
2023/01/14 06:28:09;;;;;;;22.33;3.83;;;7.90;1.00;;;;;;4900656;29;20282;-86
2023/01/14 06:30:35;;;;;;;16.00;4.87;;;7.90;1.00;;;;;;4890417;29;20226;-86
2023/01/14 06:33:11;;;;;;;8.40;3.40;;;7.90;1.00;;;;;;4906037;29;20193;-86
2023/01/14 06:35:49;;;;;;;12.70;3.58;;;7.90;1.00;;;;;;4906563;29;20270;-85
2023/01/14 06:38:17;;;;;;;12.25;3.88;;;7.90;1.00;;;;;;4903030;29;20191;-86
2023/01/14 06:40:49;;;;;;;8.88;3.83;;;7.90;1.00;;;;;;4887198;29;20215;-86
2023/01/14 06:43:14;;;;;;;11.45;3.30;;;7.90;1.00;;;;;;4900990;29;20272;-86
2023/01/14 06:45:40;;;;;;;12.93;2.57;;;7.90;1.00;;;;;;4889255;29;20247;-85
2023/01/14 06:48:06;;;;;;;9.43;2.50;;;7.90;99.90;;;;;;4886599;29;20526;-85
2023/01/14 06:50:31;;;;;;;10.13;2.83;;;8.00;99.90;;;;;;4896845;29;20214;-85
2023/01/14 06:53:01;;;;;;;19.53;3.50;;;8.00;99.90;;;;;;4879641;29;20195;-86
2023/01/14 06:55:27;;;;;;;12.50;2.95;;;8.00;99.90;;;;;;4902907;29;20221;-86
2023/01/14 06:57:53;;;;;;;12.17;3.00;;;8.00;99.90;;;;;;4885402;29;20255;-86
2023/01/14 07:00:18;;;;;;;15.47;3.47;;;8.00;99.90;;;;;;4903381;29;20475;-86
2023/01/14 07:02:44;;;;;;;15.20;3.27;;;8.00;99.90;;;;;;4903131;29;20775;-86
2023/01/14 07:05:09;;;;;;;13.00;3.23;;;7.90;1.00;;;;;;4902945;29;20189;-86
2023/01/14 07:07:35;;;;;;;21.03;4.00;;;7.90;99.90;;;;;;4899806;29;20201;-86
2023/01/14 07:10:01;;;;;;;12.73;3.67;;;7.80;1.00;;;;;;4875867;29;20218;-86
2023/01/14 07:12:26;;;;;;;16.13;3.80;;;7.80;1.00;;;;;;4880640;29;20287;-85
2023/01/14 07:14:52;;;;;;;29.73;4.40;;;7.80;1.00;;;;;;4883308;29;20187;-85
2023/01/14 07:17:17;;;;;;;14.30;4.07;;;7.70;99.90;;;;;;4886204;29;20187;-86
2023/01/14 07:19:53;;;;;;;18.53;3.37;;;7.70;99.90;;;;;;4902541;29;20235;-86
2023/01/14 07:22:28;;;;;;;12.95;3.22;;;7.70;99.90;;;;;;4885583;29;20571;-86
2023/01/14 07:25:04;;;;;;;14.90;4.15;;;7.70;99.90;;;;;;4902885;29;20186;-86
2023/01/14 07:27:32;;;;;;;11.35;2.85;;;7.60;99.90;;;;;;4880601;29;20191;-85
2023/01/14 07:29:59;;;;;;;23.30;6.47;;;7.70;1.00;;;;;;4887504;29;20213;-85
2023/01/14 07:32:28;;;;;;;14.35;3.00;;;7.70;1.00;;;;;;4886408;29;20631;-85
2023/01/14 07:34:54;;;;;;;12.73;3.10;;;7.80;1.00;;;;;;4886105;29;20283;-86
2023/01/14 07:37:22;;;;;;;8.77;2.33;;;7.80;1.00;;;;;;4887226;29;20647;-84
2023/01/14 07:39:48;;;;;;;22.02;3.53;;;7.90;1.00;;;;;;4901845;29;20207;-85
2023/01/14 07:42:22;;;;;;;8.33;3.90;;;7.90;1.00;;;;;;4881273;29;20754;-84
2023/01/14 07:44:47;;;;;;;17.95;2.58;;;8.00;1.00;;;;;;4898091;29;20194;-86
2023/01/14 07:47:16;;;;;;;9.43;2.83;;;8.00;1.00;;;;;;4902162;29;20211;-85
2023/01/14 07:49:42;;;;;;;5.45;3.10;;;8.00;1.00;;;;;;4901520;29;20687;-84
2023/01/14 07:52:12;;;;;;;4.63;2.10;;;8.00;1.00;;;;;;4903152;29;20241;-85
2023/01/14 07:54:39;;;;;;;6.60;1.80;;;8.00;1.00;;;;;;4899953;29;21202;-85
2023/01/14 07:57:09;;;;;;;10.07;4.60;;;8.10;1.00;;;;;;4885598;29;20453;-85
2023/01/14 07:59:39;;;;;;;5.85;2.50;;;8.20;1.00;;;;;;4886511;29;20819;-85
2023/01/14 08:02:09;;;;;;;5.30;1.85;;;8.20;1.00;;;;;;4895246;29;20625;-86
2023/01/14 08:04:34;;;;;;;4.25;3.17;;;8.20;1.00;;;;;;4887816;29;20218;-85
2023/01/14 08:07:00;;;;;;;8.40;2.53;;;8.30;1.00;;;;;;4890139;29;20640;-85
2023/01/14 08:09:26;;;;;;;3.00;1.57;;;8.30;1.00;;;;;;4891058;29;20239;-85
2023/01/14 08:11:55;;;;;;;3.37;1.07;;;8.40;1.00;;;;;;4906779;29;20191;-85
2023/01/14 08:14:20;;;;;;;3.40;1.40;;;8.40;1.00;;;;;;4908080;29;20439;-85
2023/01/14 08:16:46;;;;;;;2.20;1.33;;;8.50;1.00;;;;;;4891131;29;20191;-85
2023/01/14 08:19:18;;;;;;;1.80;1.30;;;8.50;1.00;;;;;;4886882;29;20206;-85
2023/01/14 08:21:49;;;;;;;3.90;2.20;;;8.60;1.00;;;;;;4904838;29;20226;-85
2023/01/14 08:24:23;;;;;;;3.27;0.90;;;8.60;1.00;;;;;;4900895;29;20459;-85
2023/01/14 08:26:51;;;;;;;2.50;1.30;;;8.60;1.00;;;;;;4885992;29;20813;-85
2023/01/14 08:29:23;;;;;;;4.07;0.95;;;8.70;1.00;;;;;;4885632;29;20474;-85
2023/01/14 08:31:52;;;;;;;3.00;1.20;;;8.70;1.00;;;;;;4904081;29;20190;-85
2023/01/14 08:34:17;;;;;;;2.20;0.90;;;8.80;1.00;;;;;;4886108;29;20437;-86
2023/01/14 08:36:44;;;;;;;1.80;0.70;;;8.80;1.00;;;;;;4896789;29;20510;-85
2023/01/14 08:39:17;;;;;;;1.90;1.00;;;8.80;1.00;;;;;;4899672;29;20179;-86
2023/01/14 08:41:54;;;;;;;2.47;0.90;;;8.90;1.00;;;;;;4899444;29;20516;-89
2023/01/14 08:44:31;;;;;;;3.20;1.10;;;8.90;99.90;;;;;;4919714;28;20502;-86
2023/01/14 08:47:02;;;;;;;2.90;0.80;;;9.00;99.90;;;;;;4887720;29;20447;-86
2023/01/14 08:49:38;;;;;;;3.27;1.57;;;9.00;99.90;;;;;;4897589;29;20510;-87
2023/01/14 08:52:07;;;;;;;3.67;0.90;;;9.00;99.90;;;;;;4879054;29;20834;-87
2023/01/14 08:54:41;;;;;;;4.77;1.50;;;9.10;99.90;;;;;;4883538;29;20814;-85
2023/01/14 08:57:12;;;;;;;1.77;1.00;;;9.10;99.90;;;;;;4889778;29;20455;-85
2023/01/14 09:02:15;;;;;;;2.03;1.00;;;9.10;99.90;;;;;;4954809;23;20497;-86
2023/01/14 09:04:53;;;;;;;3.87;1.10;;;9.10;99.90;;;;;;4898802;29;20435;-86
2023/01/14 09:18:46;;;;;;;1.87;0.90;;;9.20;99.90;;;;;;4881154;29;20515;-85
2023/01/14 09:21:16;;;;;;;2.50;0.87;;;9.30;99.90;;;;;;4860444;29;20472;-84
2023/01/14 09:23:52;;;;;;;2.50;1.00;;;9.30;99.90;;;;;;4842693;29;20980;-84
2023/01/14 09:26:20;;;;;;;4.73;1.20;;;9.40;99.90;;;;;;4843414;29;20504;-84
2023/01/14 09:28:46;;;;;;;6.07;1.33;;;9.40;99.90;;;;;;4845261;29;20817;-83
2023/01/14 09:31:11;;;;;;;4.30;1.37;;;9.50;99.90;;;;;;4861133;29;20461;-84
2023/01/14 09:33:37;;;;;;;10.70;2.03;;;9.50;99.90;;;;;;4843183;29;20829;-84
2023/01/14 09:36:03;;;;;;;6.93;1.73;;;9.60;99.90;;;;;;4859128;29;20188;-85
2023/01/14 09:38:28;;;;;;;7.20;1.30;;;9.60;99.90;;;;;;4856689;29;20245;-85
2023/01/14 09:40:57;;;;;;;6.43;1.30;;;9.70;99.90;;;;;;4863989;29;20472;-84
2023/01/14 09:43:30;;;;;;;3.20;1.67;;;9.70;91.30;;;;;;4861382;29;20184;-85
2023/01/14 09:46:01;;;;;;;3.67;1.20;;;9.70;47.10;;;;;;4864561;29;20424;-86
2023/01/14 09:48:33;;;;;;;4.63;1.10;;;9.80;56.40;;;;;;4872522;29;20480;-86
2023/01/14 09:51:30;;;;;;;4.07;1.23;;;9.80;50.60;;;;;;4858524;29;20535;-86
2023/01/14 09:54:13;;;;;;;14.40;1.97;;;9.90;71.40;;;;;;4858203;29;20513;-86
2023/01/14 09:57:01;;;;;;;3.70;1.40;;;9.90;99.90;;;;;;4857710;29;20445;-86
2023/01/14 09:59:53;;;;;;;3.27;1.50;;;9.90;99.90;;;;;;4856970;29;21015;-86
2023/01/14 10:02:40;;;;;;;3.93;1.47;;;9.90;99.90;;;;;;4858776;29;20504;-86
2023/01/14 10:05:37;;;;;;;4.30;1.47;;;9.90;99.90;;;;;;4858241;29;20447;-86
2023/01/14 10:08:05;;;;;;;7.73;1.83;;;9.80;99.90;;;;;;4843670;29;20457;-85
2023/01/14 10:10:36;;;;;;;4.97;1.67;;;9.80;99.90;;;;;;4856799;29;20483;-85
2023/01/14 10:13:11;;;;;;;3.03;1.40;;;9.80;99.90;;;;;;4859248;29;20441;-85
2023/01/14 10:15:54;;;;;;;5.60;1.70;;;9.80;99.90;;;;;;4860576;29;20451;-86
2023/01/14 10:18:31;;;;;;;5.77;1.23;;;9.80;99.90;;;;;;4846395;29;20448;-85
2023/01/14 10:21:32;;;;;;;7.53;1.60;;;9.70;99.90;;;;;;4883374;23;20507;-86
2023/01/14 10:24:04;;;;;;;6.40;1.17;;;9.70;1.00;;;;;;4863649;29;20484;-86
2023/01/14 10:26:36;;;;;;;6.50;1.60;;;9.70;1.00;;;;;;4879122;29;20445;-86
2023/01/14 10:29:18;;;;;;;5.30;1.47;;;9.70;1.00;;;;;;4876270;29;20523;-86
2023/01/14 10:31:55;;;;;;;5.20;1.03;;;9.60;1.00;;;;;;4863024;29;20444;-86
2023/01/14 10:34:29;;;;;;;4.40;1.30;;;9.60;1.00;;;;;;4863301;29;21001;-85
2023/01/14 10:36:54;;;;;;;6.37;1.70;;;9.60;1.00;;;;;;4880297;29;20789;-86
2023/01/14 10:39:23;;;;;;;3.70;1.37;;;9.60;1.00;;;;;;4881063;29;20470;-85
2023/01/14 10:41:50;;;;;;;3.37;1.33;;;9.60;1.00;;;;;;4868023;29;20789;-86
2023/01/14 10:44:29;;;;;;;5.13;1.20;;;9.60;1.00;;;;;;4879002;29;20445;-85
2023/01/14 10:46:57;;;;;;;3.40;1.10;;;9.60;1.00;;;;;;4882396;29;20435;-85
2023/01/14 10:49:33;;;;;;;2.77;1.50;;;9.60;1.00;;;;;;4882494;29;20941;-85
2023/01/14 10:51:59;;;;;;;5.83;1.60;;;9.60;1.00;;;;;;4878249;29;20454;-86
2023/01/14 10:54:28;;;;;;;4.07;1.30;;;9.70;1.00;;;;;;4879670;29;20948;-85
2023/01/14 10:57:15;;;;;;;6.27;1.40;;;9.70;1.00;;;;;;4871590;29;20665;-86
2023/01/14 10:59:57;;;;;;;5.80;1.10;;;9.70;1.00;;;;;;4872702;29;20451;-85
2023/01/14 11:02:37;;;;;;;2.57;1.00;;;9.70;1.00;;;;;;4858334;29;20512;-85
2023/01/14 11:05:30;;;;;;;1.73;0.87;;;9.70;1.00;;;;;;4859945;29;20439;-86
2023/01/14 11:08:05;;;;;;;7.23;1.20;;;9.80;1.00;;;;;;4863402;29;20527;-87
2023/01/14 11:10:31;;;;;;;2.50;1.00;;;9.80;1.00;;;;;;4886670;29;20523;-87
2023/01/14 11:13:44;;;;;;;4.40;1.03;;;9.80;1.00;;;;;;4877135;29;20920;-87
2023/01/14 11:16:24;;;;;;;3.03;1.03;;;9.80;1.00;;;;;;4825564;29;20446;-86
2023/01/14 11:18:56;;;;;;;2.80;0.93;;;9.80;1.00;;;;;;4824718;29;20438;-86
2023/01/14 11:21:24;;;;;;;2.50;1.27;;;9.80;1.00;;;;;;4861539;29;20503;-86
2023/01/14 11:23:56;;;;;;;5.67;2.20;;;9.90;1.00;;;;;;4863244;29;20439;-84
2023/01/14 11:26:33;;;;;;;4.63;1.03;;;9.90;1.00;;;;;;4884252;29;20487;-84
2023/01/14 11:29:14;;;;;;;2.93;1.23;;;9.90;1.00;;;;;;4880389;29;20423;-85
2023/01/14 11:31:41;;;;;;;1.53;1.00;;;9.90;1.00;;;;;;4863454;29;20475;-84
2023/01/14 11:34:30;;;;;;;1.60;0.83;;;9.90;1.00;;;;;;4865439;29;20512;-84
2023/01/14 11:37:17;;;;;;;5.90;1.20;;;9.90;1.00;;;;;;4879752;29;20905;-87
2023/01/14 11:39:58;;;;;;;2.20;0.80;;;9.90;1.00;;;;;;4882461;29;20948;-84
2023/01/14 11:42:26;;;;;;;3.60;0.90;;;9.90;1.00;;;;;;4879621;29;20506;-85
2023/01/14 11:45:11;;;;;;;5.40;1.50;;;9.90;1.00;;;;;;4863783;29;20512;-85
2023/01/14 11:47:54;;;;;;;4.47;2.70;;;10.00;1.00;;;;;;4879817;29;20432;-83
2023/01/14 11:50:20;;;;;;;3.57;2.23;;;10.00;1.00;;;;;;4878892;29;20459;-84
2023/01/14 11:53:08;;;;;;;3.20;1.00;;;10.00;1.00;;;;;;4880092;29;20979;-84
2023/01/14 11:55:38;;;;;;;34.17;18.90;;;10.00;1.00;;;;;;4881356;29;20685;-84
2023/01/14 11:58:20;;;;;;;13.83;7.57;;;10.00;1.00;;;;;;4877162;29;20452;-84
2023/01/14 12:00:54;;;;;;;18.97;12.40;;;10.00;1.00;;;;;;4878959;29;20487;-85
2023/01/14 12:03:28;;;;;;;12.90;10.30;;;10.00;1.00;;;;;;4877791;29;20455;-85
2023/01/14 12:05:55;;;;;;;2.47;2.00;;;10.10;1.00;;;;;;4880293;29;20909;-84
2023/01/14 12:08:28;;;;;;;3.73;2.73;;;10.10;1.00;;;;;;4879235;29;20787;-84
2023/01/14 12:10:59;;;;;;;1.77;1.50;;;10.20;1.00;;;;;;4880650;29;20538;-85
2023/01/14 12:16:49;;;;;;;5.40;2.43;;;10.20;1.00;;;;;;4880550;29;20943;-85
2023/01/14 12:19:26;;;;;;;3.00;2.20;;;10.20;1.00;;;;;;4883729;29;20459;-84
2023/01/14 12:22:02;;;;;;;2.67;0.97;;;10.20;1.00;;;;;;4892160;29;20527;-85
2023/01/14 12:24:45;;;;;;;3.90;3.50;;;10.30;1.00;;;;;;4894720;29;20440;-85
2023/01/14 12:27:43;;;;;;;4.17;2.27;;;10.30;1.00;;;;;;4873067;29;20443;-84
2023/01/14 12:30:40;;;;;;;2.30;1.80;;;10.30;1.00;;;;;;4873937;29;20571;-84
2023/01/14 12:33:09;;;;;;;3.87;1.83;;;10.30;1.00;;;;;;4870541;29;20824;-84
2023/01/14 12:35:50;;;;;;;5.87;4.07;;;10.30;1.00;;;;;;4878324;29;20545;-84
2023/01/14 12:47:20;;;;;;;4.10;2.47;;;10.40;1.00;;;;;;4865847;29;20816;-84
2023/01/14 12:49:46;;;;;;;5.10;2.20;;;10.40;1.00;;;;;;4877773;29;20501;-85
2023/01/14 12:52:22;;;;;;;4.63;2.40;;;10.40;1.00;;;;;;4888723;29;20518;-84
2023/01/14 12:54:49;;;;;;;6.67;4.43;;;10.50;1.00;;;;;;4876441;29;20192;-84
2023/01/14 12:57:21;;;;;;;5.37;4.00;;;10.50;1.00;;;;;;4876062;29;20431;-84
2023/01/14 12:59:56;;;;;;;20.47;12.33;;;10.50;1.00;;;;;;4877025;29;20818;-84
2023/01/14 13:02:38;;;;;;;4.00;2.50;;;10.50;1.00;;;;;;4877948;29;20958;-84
2023/01/14 13:05:14;;;;;;;1.87;1.23;;;10.50;1.00;;;;;;4878498;29;20451;-84
2023/01/14 13:07:55;;;;;;;4.63;3.37;;;10.60;1.00;;;;;;4877381;29;20447;-84
2023/01/14 13:10:33;;;;;;;2.23;2.03;;;10.60;1.00;;;;;;4873961;29;20487;-85
2023/01/14 13:13:01;;;;;;;4.33;2.70;;;10.70;1.00;;;;;;4883046;29;20467;-83
2023/01/14 13:15:35;;;;;;;4.80;2.93;;;10.70;1.00;;;;;;4866357;29;20448;-84
2023/01/14 13:18:03;;;;;;;5.77;2.10;;;10.70;1.00;;;;;;4881464;29;20446;-84
2023/01/14 13:20:29;;;;;;;2.37;1.87;;;10.80;1.00;;;;;;4864064;29;20475;-82
2023/01/14 13:22:59;;;;;;;3.57;1.63;;;10.80;1.00;;;;;;4882233;29;20451;-83
2023/01/14 13:25:40;;;;;;;2.50;0.93;;;10.80;1.00;;;;;;4883633;29;20204;-84
2023/01/14 13:28:12;;;;;;;3.17;2.40;;;10.80;1.00;;;;;;4884801;29;20438;-84
2023/01/14 13:30:49;;;;;;;10.07;6.00;;;10.80;1.00;;;;;;4885503;29;20460;-84
2023/01/14 13:33:23;;;;;;;2.60;1.20;;;10.80;1.00;;;;;;4886020;29;20504;-84
2023/01/14 13:36:10;;;;;;;3.57;1.00;;;10.90;1.00;;;;;;4883880;29;20431;-84
2023/01/14 13:38:57;;;;;;;2.67;1.13;;;10.90;1.00;;;;;;4876289;29;20455;-83
2023/01/14 13:41:47;;;;;;;1.83;1.00;;;10.90;1.00;;;;;;4892792;29;20562;-84
2023/01/14 13:44:39;;;;;;;3.00;2.70;;;11.00;1.00;;;;;;4883891;29;20456;-82
2023/01/14 13:47:17;;;;;;;2.73;1.20;;;11.00;1.00;;;;;;4881508;29;20451;-83
2023/01/14 13:49:54;;;;;;;3.93;1.60;;;11.00;1.00;;;;;;4893356;29;20467;-84
2023/01/14 13:52:25;;;;;;;3.27;1.33;;;11.00;1.00;;;;;;4887486;29;20828;-83
2023/01/14 13:54:58;;;;;;;2.23;1.20;;;11.00;1.00;;;;;;4888076;29;20428;-83
2023/01/14 13:57:56;;;;;;;3.03;1.77;;;11.00;1.00;;;;;;4886351;29;20533;-84
2023/01/14 14:00:23;;;;;;;1.80;1.00;;;11.00;1.00;;;;;;4871087;29;20460;-84
2023/01/14 14:02:53;;;;;;;1.87;1.03;;;11.00;1.00;;;;;;4888361;29;20444;-83
2023/01/14 14:05:33;;;;;;;2.37;1.43;;;10.90;1.00;;;;;;4891112;29;20447;-84
2023/01/14 14:08:18;;;;;;;3.10;1.67;;;10.80;1.00;;;;;;4884139;29;21016;-83
2023/01/14 14:10:58;;;;;;;2.67;1.60;;;10.80;1.00;;;;;;4893017;29;20459;-83
2023/01/14 14:16:39;;;;;;;2.63;0.93;;;10.80;1.00;;;;;;4868399;29;20428;-83
2023/01/14 14:19:10;;;;;;;2.70;1.00;;;10.90;1.00;;;;;;4880522;29;20563;-84
2023/01/14 14:21:57;;;;;;;2.43;1.33;;;10.90;1.00;;;;;;4890189;29;21019;-83
2023/01/14 14:24:28;;;;;;;1.30;0.90;;;10.90;1.00;;;;;;4887865;29;20412;-83
2023/01/14 14:26:55;;;;;;;2.83;1.00;;;10.90;1.00;;;;;;4887461;29;20504;-83
2023/01/14 14:29:23;;;;;;;2.03;1.00;;;11.00;1.00;;;;;;4885312;29;20464;-83
2023/01/14 14:31:49;;;;;;;3.43;1.50;;;11.00;1.00;;;;;;4868482;29;20488;-84
2023/01/14 14:34:21;;;;;;;1.53;0.60;;;11.10;1.00;;;;;;4888539;29;20419;-84
2023/01/14 14:37:16;;;;;;;0.90;0.60;;;11.10;1.00;;;;;;4887364;29;20890;-84